Rifle, Colorado
Current Conditions -  °F | °C
As of 1:53 PM on Sunday 21 Dec 2014 (Local Time) from KRIL Reporting Station
Light Snow Light Snow  
Wind Chill: 28°   Ceiling: 1400
Heat Index: 34°   Visibility: 4mi
Dew Point: 29°   Wind: 7mph
Humidity: 82%   Direction: 240°WSW
Pressure: 29.88"   Gusts: NA
Location:  39.53°N, 107.78°W
Report Text: KRIL 212053Z AUTO 24006KT 4SM -SN OVC014 01/M02 A2988 RMK AO2 SLP127 P0000 60000 T00111017 56026
Loading
Personal Weather Stations






























Interactive Weather Map New forecast layout! Learn more

10-Day Weather Forecast

Advertisements
Track Severe Weather on mobile